Latest Weather Observations for Mudgee

IDN60801

Issued at 10:35 pm EST Thursday 24 April 2014 (issued every 30 minutes, with the page automatically refreshed every 10 minutes)

About weather observations | Map of weather stations | Latest weather observations for NSW | Other Formats
Station Details ID: 062101 Name: MUDGEE AIRPORT AWS Lat: -32.56 Lon: 149.61 Height: 471.0 m
Data from the previous 72 hours. | See also: Recent months at Mudgee
Date/Time
EST
Temp
°C
App
Temp
°C
Dew
Point
Rel
Hum
%
Delta-T
°C
Wind Press
QNH
hPa
Press
MSL
hPa
Rain
since 9 am
mm
Dir
 
Spd
km/h
Gust
km/h
Spd
kts
Gust
kts
24/10:30pm 9.4 8.2 6.5 82 1.4 SE 2 7 1 4 1018.4 - 0.0
24/10:00pm 10.4 8.4 7.1 80 1.6 NE 7 11 4 6 1018.3 - 0.0
24/09:30pm 10.9 10.3 7.2 78 1.8 CALM 0 6 0 3 1018.0 - 0.0
24/09:00pm 10.9 9.8 7.0 77 1.9 NE 2 7 1 4 1017.7 1016.7 0.0
24/08:30pm 10.7 8.8 6.5 75 2.0 NE 6 9 3 5 1017.4 - 0.0
24/08:00pm 14.2 13.5 7.0 62 3.6 CALM 0 7 0 4 1017.0 - 0.0
24/07:30pm 15.0 13.7 7.8 62 3.7 SSW 4 7 2 4 1016.7 - 0.0
24/07:00pm 14.0 11.7 7.3 64 3.4 NE 9 13 5 7 1016.5 - 0.0
24/06:30pm 17.4 15.3 6.6 49 5.5 SE 7 11 4 6 1016.2 - 0.0
24/06:00pm 19.0 17.8 6.5 44 6.4 SSE 2 6 1 3 1015.7 1014.6 0.0
24/05:30pm 21.1 19.0 6.6 39 7.5 W 7 9 4 5 1015.4 - 0.0
24/05:00pm 23.6 21.1 6.4 33 9.0 W 9 9 5 5 1015.2 - 0.0
24/04:30pm 24.6 22.1 6.4 31 9.6 W 9 13 5 7 1015.1 - 0.0
24/04:00pm 25.2 21.4 5.9 29 10.1 W 15 17 8 9 1015.1 - 0.0
24/03:30pm 25.4 21.8 6.6 30 10.0 W 15 19 8 10 1015.0 - 0.0
24/03:00pm 25.4 21.7 6.1 29 10.2 WNW 15 20 8 11 1015.1 1014.0 0.0
24/02:30pm 25.3 21.8 7.0 31 9.8 W 15 20 8 11 1015.2 - 0.0
24/02:00pm 25.3 21.0 7.0 31 9.8 WNW 19 26 10 14 1015.3 - 0.0
24/01:30pm 25.0 22.4 9.3 37 8.7 NW 13 20 7 11 1015.5 - 0.0
24/01:00pm 24.1 21.3 8.5 37 8.5 WNW 13 20 7 11 1015.7 - 0.0
24/12:30pm 22.9 19.8 9.0 41 7.6 NW 15 19 8 10 1016.1 - 0.0
24/12:00pm 22.4 19.3 8.9 42 7.4 NNW 15 19 8 10 1016.4 1015.4 0.0
24/11:30am 21.9 19.7 9.4 45 6.9 NNW 11 17 6 9 1016.8 - 0.0
24/11:00am 20.5 18.2 9.1 48 6.2 N 11 17 6 9 1017.0 - 0.0
24/10:30am 19.2 17.4 7.9 48 5.9 NE 7 11 4 6 1017.5 - 0.0
24/10:00am 16.6 14.4 9.3 62 3.9 SW 11 17 6 9 1017.7 - 0.0
24/09:30am 15.0 14.7 8.5 65 3.4 NNE 0 0 0 0 1017.4 - 0.0
24/09:00am 11.4 10.7 6.9 74 2.2 CALM 0 0 0 0 1017.7 1016.7 0.0
24/08:30am 9.8 8.8 5.8 76 1.9 CALM 0 0 0 0 1017.7 - 0.0
24/08:00am 8.6 7.6 5.7 82 1.4 CALM 0 0 0 0 1017.5 - 0.0
24/07:30am 5.7 4.1 4.5 92 0.5 SSE 2 6 1 3 1017.3 - 0.0
24/07:00am 3.7 2.3 3.3 97 0.2 CALM 0 0 0 0 1017.0 - 0.0
24/06:30am 2.6 -0.4 2.2 97 0.2 NNE 7 9 4 5 1016.7 - 0.0
24/06:00am 3.8 2.4 3.4 97 0.2 CALM 0 0 0 0 1016.5 1015.5 0.0
24/05:30am 4.1 2.6 3.2 94 0.4 CALM 0 0 0 0 1016.4 - 0.0
24/05:00am 4.0 2.5 2.8 92 0.5 CALM 0 0 0 0 1016.3 - 0.0
24/04:30am 4.4 2.9 3.2 92 0.5 CALM 0 0 0 0 1016.3 - 0.0
24/04:00am 4.4 2.9 3.2 92 0.5 CALM 0 0 0 0 1016.3 - 0.0
24/03:30am 4.8 3.4 3.5 91 0.6 CALM 0 0 0 0 1016.3 - 0.0
24/03:00am 5.3 2.8 4.0 91 0.6 N 6 7 3 4 1016.5 1015.5 0.0
24/02:30am 4.5 2.3 3.3 92 0.5 E 4 9 2 5 1016.6 - 0.0
24/02:00am 5.3 3.9 3.5 88 0.8 CALM 0 0 0 0 1016.9 - 0.0
24/01:30am 5.3 2.7 3.2 86 0.9 NNE 6 7 3 4 1017.1 - 0.0
24/01:00am 5.9 3.2 3.6 85 1.0 N 7 9 4 5 1017.3 - 0.0
24/12:30am 6.1 3.6 3.9 86 1.0 NNE 6 7 3 4 1017.4 - 0.0
24/12:00am 6.4 3.9 3.9 84 1.1 N 6 9 3 5 1017.3 1016.2 0.0
 
Date/Time
EST
Temp
°C
App
Temp
°C
Dew
Point
Rel
Hum
%
Delta-T
°C
Wind Press
QNH
hPa
Press
MSL
hPa
Rain
since 9 am
mm
Dir
 
Spd
km/h
Gust
km/h
Spd
kts
Gust
kts
23/11:30pm 6.0 3.4 4.2 88 0.8 NNE 7 9 4 5 1017.4 - 0.0
23/11:00pm 7.1 5.9 4.6 84 1.1 CALM 0 0 0 0 1017.5 - 0.0
23/10:30pm 6.2 4.1 3.7 84 1.1 NNE 4 7 2 4 1017.7 - 0.0
23/10:00pm 7.6 4.6 4.2 79 1.5 NNE 9 9 5 5 1017.8 - 0.0
23/09:30pm 7.8 4.9 4.6 80 1.4 NNE 9 13 5 7 1017.8 - 0.0
23/09:00pm 8.3 5.7 4.3 76 1.8 NNE 7 9 4 5 1017.7 1016.7 0.0
23/08:30pm 12.1 10.1 6.4 68 2.8 S 6 9 3 5 1017.9 - 0.0
23/08:00pm 11.7 9.4 5.8 67 2.8 ENE 7 11 4 6 1017.8 - 0.0
23/07:30pm 11.7 9.0 5.6 66 2.9 NE 9 11 5 6 1017.7 - 0.0
23/07:00pm 12.3 10.0 5.9 65 3.1 NE 7 9 4 5 1017.7 - 0.0
23/06:30pm 13.8 11.8 7.1 64 3.3 NE 7 11 4 6 1017.6 - 0.0
23/06:00pm 14.5 11.5 5.8 56 4.2 NE 11 15 6 8 1017.3 1016.2 0.0
23/05:55pm 14.6 11.4 5.1 53 4.6 NE 11 13 6 7 1017.3 - 0.0
23/05:30pm 19.7 17.3 5.4 39 7.2 NNE 7 9 4 5 1017.1 - 0.0
23/05:00pm 20.9 18.3 6.1 38 7.6 N 9 11 5 6 1016.9 - 0.0
23/04:30pm 22.1 19.7 5.1 33 8.6 N 7 9 4 5 1016.7 - 0.0
23/04:00pm 22.7 19.5 3.3 28 9.6 N 9 11 5 6 1016.6 - 0.0
23/03:30pm 22.9 20.0 4.4 30 9.3 N 9 13 5 7 1016.7 - 0.0
23/03:00pm 23.0 20.4 6.3 34 8.7 N 9 15 5 8 1016.7 1015.7 0.0
23/02:30pm 22.7 20.8 7.7 38 8.0 N 7 15 4 8 1016.8 - 0.0
23/02:00pm 22.5 21.3 7.9 39 7.8 W 4 11 2 6 1017.0 - 0.0
23/01:30pm 21.8 19.5 7.6 40 7.5 NW 9 13 5 7 1017.1 - 0.0
23/01:00pm 21.1 18.9 6.2 38 7.7 WNW 7 13 4 7 1017.5 - 0.0
23/12:30pm 19.9 19.3 7.3 44 6.6 CALM 0 4 0 2 1018.0 - 0.0
23/12:00pm 18.8 17.6 7.9 49 5.7 S 4 9 2 5 1018.4 1017.4 0.0
23/11:30am 16.9 15.9 8.8 59 4.3 SSE 4 7 2 4 1018.9 - 0.0
23/11:00am 15.1 14.5 8.8 66 3.3 SE 2 7 1 4 1019.2 - 0.0
23/10:30am 12.7 11.2 8.6 76 2.1 S 6 7 3 4 1019.7 - 0.0
23/10:00am 11.2 9.6 8.6 84 1.3 S 7 11 4 6 1020.0 - 0.0
23/09:30am 9.7 8.0 8.3 91 0.7 S 7 9 4 5 1020.1 - 0.0
23/09:00am 8.8 7.2 8.0 95 0.4 S 6 9 3 5 1020.2 1019.2 0.0
23/08:30am 7.1 5.6 6.8 98 0.1 S 4 7 2 4 1020.2 - 0.0
23/08:00am 4.7 3.5 4.4 98 0.1 CALM 0 0 0 0 1020.0 - 0.0
23/07:30am 3.3 0.5 3.0 98 0.1 NNE 7 9 4 5 1019.7 - 0.0
23/07:00am 2.5 -0.3 2.2 98 0.1 N 6 9 3 5 1019.6 - 0.0
23/06:30am 1.7 -0.8 1.4 98 0.1 NNW 4 7 2 4 1019.2 - 0.0
23/06:00am 1.1 -1.9 0.8 98 0.1 N 6 6 3 3 1019.1 1018.1 0.0
23/05:30am 1.3 -1.3 0.9 97 0.2 ENE 4 9 2 5 1019.0 - 0.0
23/05:00am 3.5 0.9 3.2 98 0.1 ESE 6 9 3 5 1018.9 - 0.0
23/04:30am 3.4 0.8 3.1 98 0.1 SSE 6 7 3 4 1018.9 - 0.0
23/04:00am 2.5 0.9 2.2 98 0.1 CALM 0 0 0 0 1019.0 - 0.0
23/03:30am 2.5 -0.5 2.1 97 0.2 N 7 9 4 5 1018.9 - 0.0
23/03:00am 3.3 1.4 2.9 97 0.2 ENE 2 7 1 4 1018.8 1017.8 0.0
23/02:30am 4.9 3.7 4.6 98 0.1 CALM 0 0 0 0 1018.8 - 0.0
23/02:00am 4.3 3.0 3.9 97 0.2 CALM 0 7 0 4 1019.0 - 0.0
23/01:30am 5.7 3.8 5.1 96 0.3 E 4 7 2 4 1019.2 - 0.0
23/01:00am 5.8 4.8 5.4 97 0.2 CALM 0 0 0 0 1019.3 - 0.0
23/12:30am 4.9 2.4 3.9 93 0.4 N 6 9 3 5 1019.1 - 0.0
23/12:00am 7.0 6.0 5.5 90 0.7 CALM 0 0 0 0 1019.0 1018.0 0.0
 
Date/Time
EST
Temp
°C
App
Temp
°C
Dew
Point
Rel
Hum
%
Delta-T
°C
Wind Press
QNH
hPa
Press
MSL
hPa
Rain
since 9 am
mm
Dir
 
Spd
km/h
Gust
km/h
Spd
kts
Gust
kts
22/11:30pm 7.3 6.3 5.4 88 0.9 CALM 0 0 0 0 1019.0 - 0.0
22/11:00pm 6.7 4.4 4.9 88 0.8 SE 6 9 3 5 1019.3 - 0.0
22/10:30pm 7.4 6.5 6.0 91 0.7 CALM 0 0 0 0 1019.6 - 0.0
22/10:00pm 6.7 3.9 5.0 89 0.8 NNE 9 11 5 6 1019.7 - 0.0
22/09:30pm 7.6 6.5 4.9 83 1.2 CALM 0 0 0 0 1019.9 - 0.0
22/09:00pm 8.7 6.6 6.0 83 1.3 NE 6 7 3 4 1019.8 1018.8 0.0
22/08:30pm 9.7 8.4 6.1 78 1.7 NE 2 6 1 3 1019.8 - 0.0
22/08:00pm 10.2 8.4 5.2 71 2.3 SE 4 7 2 4 1019.8 - 0.0
22/07:30pm 11.5 9.0 6.4 71 2.5 SSE 9 13 5 7 1019.6 - 0.0
22/07:00pm 11.4 9.2 6.1 70 2.5 S 7 9 4 5 1019.3 - 0.0
22/06:30pm 12.5 11.3 4.7 59 3.7 CALM 0 0 0 0 1019.0 - 0.0
22/06:00pm 15.6 14.7 6.1 53 4.7 CALM 0 0 0 0 1018.6 1017.6 0.0
22/05:30pm 17.0 14.8 6.2 49 5.4 W 7 9 4 5 1018.4 - 0.0
22/05:00pm 19.2 16.2 6.0 42 6.7 WNW 11 17 6 9 1018.3 - 0.0
22/04:30pm 20.1 16.0 6.4 41 7.0 NW 17 20 9 11 1018.4 - 0.0
22/04:00pm 20.1 15.4 5.0 37 7.6 NW 19 26 10 14 1018.4 - 0.0
22/03:30pm 20.2 15.9 5.1 37 7.6 WNW 17 24 9 13 1018.5 - 0.0
22/03:00pm 20.8 16.1 5.2 36 7.9 WNW 19 24 10 13 1018.5 1017.5 0.0
22/02:30pm 21.2 16.5 5.9 37 7.8 WNW 20 32 11 17 1018.5 - 0.0
22/02:00pm 20.8 15.5 4.8 35 8.0 WNW 22 30 12 16 1018.5 - 0.0
22/01:30pm 20.6 15.8 5.8 38 7.5 NW 20 30 11 16 1018.6 - 0.0
22/01:00pm 20.1 15.3 5.4 38 7.4 WNW 20 26 11 14 1019.1 - 0.0
22/12:30pm 19.4 14.6 5.8 41 6.9 WNW 20 28 11 15 1019.3 - 0.0
22/12:00pm 19.0 14.2 5.8 42 6.6 WNW 20 24 11 13 1019.9 1018.9 0.0
22/11:30am 17.6 14.6 7.9 53 5.0 NNW 13 20 7 11 1020.4 - 0.0
22/11:00am 17.0 14.6 7.1 52 5.1 NW 9 17 5 9 1020.7 - 0.0
22/10:30am 15.5 15.0 9.2 66 3.3 SW 2 7 1 4 1021.1 - 0.0
22/10:00am 13.7 12.9 9.6 76 2.2 SW 4 7 2 4 1021.1 - 0.0
22/09:30am 12.0 11.0 8.8 81 1.6 S 4 11 2 6 1021.2 - 0.0
22/09:00am 10.2 9.4 8.0 86 1.1 NE 2 6 1 3 1021.2 1020.2 0.0
22/08:30am 9.0 8.6 8.4 96 0.3 CALM 0 0 0 0 1021.2 - 0.0
22/08:00am 7.1 6.4 6.8 98 0.1 CALM 0 0 0 0 1021.0 - 0.0
22/07:30am 5.2 3.3 4.9 98 0.1 NE 4 6 2 3 1020.7 - 0.0
22/07:00am 3.3 1.8 3.0 98 0.1 CALM 0 4 0 2 1020.5 - 0.0
22/06:30am 2.7 -0.2 2.4 98 0.1 N 7 9 4 5 1020.5 - 0.0
22/06:00am 2.9 1.3 2.6 98 0.1 CALM 0 0 0 0 1020.5 1019.5 0.0
22/05:30am 3.8 1.6 3.5 98 0.1 NE 4 7 2 4 1020.4 - 0.0
22/05:00am 3.3 1.4 3.0 98 0.1 NNE 2 7 1 4 1020.4 - 0.0
22/04:30am 3.7 1.9 3.4 98 0.1 ENE 2 7 1 4 1020.3 - 0.0
22/04:00am 3.1 0.4 2.8 98 0.1 N 6 9 3 5 1020.3 - 0.0
22/03:30am 3.7 2.3 3.4 98 0.1 CALM 0 0 0 0 1020.1 - 0.0
22/03:00am 4.2 2.9 3.9 98 0.1 CALM 0 6 0 3 1020.2 1019.2 0.0
22/02:30am 4.7 2.1 4.4 98 0.1 NE 7 9 4 5 1020.4 - 0.0
22/02:00am 4.0 0.9 3.7 98 0.1 NNE 9 13 5 7 1020.6 - 0.0
22/01:30am 5.1 3.9 4.8 98 0.1 CALM 0 0 0 0 1021.1 - 0.0
22/01:00am 4.5 3.2 4.1 97 0.2 CALM 0 0 0 0 1021.1 - 0.0
22/12:30am 5.1 3.9 4.7 97 0.2 CALM 0 0 0 0 1021.0 - 0.0
22/12:00am 5.2 4.0 4.8 97 0.2 CALM 0 0 0 0 1021.2 1020.2 0.0
 
Date/Time
EST
Temp
°C
App
Temp
°C
Dew
Point
Rel
Hum
%
Delta-T
°C
Wind Press
QNH
hPa
Press
MSL
hPa
Rain
since 9 am
mm
Dir
 
Spd
km/h
Gust
km/h
Spd
kts
Gust
kts
21/11:30pm 5.5 3.2 4.9 96 0.3 NNE 6 9 3 5 1021.4 - 0.0
21/11:00pm 7.1 5.0 6.5 96 0.3 NE 7 11 4 6 1021.5 - 0.0

Other Formats:

Comma delimited format used in spreadsheet applications
http://www.bom.gov.au/fwo/IDN60801/IDN60801.94727.axf

JavaScript Object Notation format (JSON) in row-major order
http://www.bom.gov.au/fwo/IDN60801/IDN60801.94727.json